createdAt,value
2018-11-05T00:01:29.275Z,76.57
2018-11-05T00:03:59.529Z,69.73
2018-11-05T00:06:33.513Z,82.73
2018-11-05T00:09:06.381Z,73.70
2018-11-05T00:11:43.406Z,80.03
2018-11-05T00:14:12.985Z,90.37
2018-11-05T00:16:43.587Z,91.10
2018-11-05T00:19:16.363Z,87.47
2018-11-05T00:21:45.976Z,99.93
2018-11-05T00:24:15.795Z,100.97
2018-11-05T00:26:48.218Z,111.40
2018-11-05T00:29:17.820Z,102.03
2018-11-05T00:31:53.723Z,93.03
2018-11-05T00:34:24.264Z,112.27
2018-11-05T00:36:53.855Z,112.40
2018-11-05T00:39:23.409Z,113.50
2018-11-05T00:41:53.141Z,119.40
2018-11-05T00:44:24.132Z,111.37
2018-11-05T00:46:54.321Z,121.67
2018-11-05T00:49:25.577Z,134.27
2018-11-05T00:51:56.103Z,125.40
2018-11-05T00:54:31.337Z,108.30
2018-11-05T00:57:02.298Z,141.07
2018-11-05T00:59:31.850Z,130.60
2018-11-05T01:02:02.220Z,148.33
2018-11-05T01:04:33.942Z,123.13
2018-11-05T01:07:05.900Z,125.23
2018-11-05T01:09:36.553Z,107.83
2018-11-05T01:12:07.159Z,138.57
2018-11-05T01:14:39.680Z,123.53
2018-11-05T01:17:11.739Z,129.00
2018-11-05T01:19:41.843Z,145.13
2018-11-05T01:22:12.589Z,166.83
2018-11-05T01:24:43.187Z,129.10
2018-11-05T01:27:29.425Z,141.17
2018-11-05T01:30:02.270Z,112.83
2018-11-05T01:32:36.670Z,123.43
2018-11-05T01:35:09.576Z,119.70
2018-11-05T01:37:39.177Z,115.27
2018-11-05T01:40:15.436Z,138.40
2018-11-05T01:42:47.726Z,143.43
2018-11-05T01:45:25.129Z,188.93
2018-11-05T01:48:03.338Z,171.40
2018-11-05T01:50:51.272Z,150.33
2018-11-05T01:53:32.358Z,125.10
2018-11-05T01:56:02.008Z,156.97
2018-11-05T01:58:32.932Z,132.07
2018-11-05T02:01:07.133Z,168.67
2018-11-05T02:03:37.596Z,151.33
2018-11-05T02:06:08.007Z,169.67
2018-11-05T02:08:39.904Z,162.37
2018-11-05T02:11:09.634Z,166.20
2018-11-05T02:13:42.734Z,143.90
2018-11-05T02:16:14.392Z,154.63
2018-11-05T02:18:44.738Z,144.93
2018-11-05T02:21:14.508Z,160.37
2018-11-05T02:23:47.815Z,136.50
2018-11-05T02:26:19.141Z,160.00
2018-11-05T02:28:48.862Z,165.03
2018-11-05T02:31:19.204Z,148.13
2018-11-05T02:33:53.940Z,167.60
2018-11-05T02:36:23.490Z,149.37
2018-11-05T02:38:52.850Z,153.83
2018-11-05T02:41:25.836Z,147.20
2018-11-05T02:43:58.385Z,146.60
2018-11-05T02:46:29.465Z,131.43
2018-11-05T02:49:00.017Z,169.87
2018-11-05T02:51:31.197Z,144.03
2018-11-05T02:54:02.901Z,144.67
2018-11-05T02:56:34.737Z,140.50
2018-11-05T02:59:04.965Z,116.77
2018-11-05T03:01:36.065Z,155.23
2018-11-05T03:04:05.475Z,150.47
2018-11-05T03:06:34.876Z,141.27
2018-11-05T03:09:06.188Z,146.57
2018-11-05T03:11:35.544Z,141.53
2018-11-05T03:14:05.031Z,141.03
2018-11-05T03:16:34.602Z,131.93
2018-11-05T03:19:06.252Z,132.60
2018-11-05T03:21:35.601Z,121.90
2018-11-05T03:24:05.272Z,122.03
2018-11-05T03:26:34.707Z,132.13
2018-11-05T03:29:04.040Z,162.73
2018-11-05T03:31:35.941Z,135.20
2018-11-05T03:34:05.496Z,111.90
2018-11-05T03:36:34.752Z,127.20
2018-11-05T03:39:08.052Z,108.13
2018-11-05T03:41:38.299Z,118.60
2018-11-05T03:44:09.016Z,126.23
2018-11-05T03:46:40.790Z,147.97
2018-11-05T03:49:11.737Z,139.60
2018-11-05T03:51:43.032Z,142.13
2018-11-05T03:54:14.917Z,133.23
2018-11-05T03:56:46.357Z,154.13
2018-11-05T03:59:15.993Z,159.37
2018-11-05T04:01:46.395Z,160.53
2018-11-05T04:04:16.005Z,150.13
2018-11-05T04:06:52.616Z,238.37
2018-11-05T04:09:22.124Z,164.97
2018-11-05T04:11:51.540Z,156.80
2018-11-05T04:14:20.838Z,116.10
2018-11-05T04:16:50.788Z,153.93
2018-11-05T04:19:20.083Z,108.83
2018-11-05T04:21:49.589Z,151.17
2018-11-05T04:24:18.963Z,110.80
2018-11-05T04:26:49.037Z,137.97
2018-11-05T04:29:21.952Z,149.43
2018-11-05T04:31:51.910Z,114.37
2018-11-05T04:34:21.296Z,158.87
2018-11-05T04:36:52.165Z,144.17
2018-11-05T04:39:21.569Z,210.40
2018-11-05T04:41:50.893Z,171.73
2018-11-05T04:44:20.380Z,141.03
2018-11-05T04:46:49.785Z,160.90
2018-11-05T04:49:19.138Z,151.93
2018-11-05T04:51:48.595Z,109.20
2018-11-05T04:54:17.884Z,124.27
2018-11-05T04:56:47.396Z,133.30
2018-11-05T04:59:16.672Z,125.50
2018-11-05T05:01:46.990Z,137.37
2018-11-05T05:04:16.253Z,93.00
2018-11-05T05:06:46.751Z,172.73
2018-11-05T05:09:20.752Z,141.30
2018-11-05T05:11:50.207Z,128.17
2018-11-05T05:14:19.757Z,117.53
2018-11-05T05:16:50.624Z,109.00
2018-11-05T05:19:21.951Z,183.50
2018-11-05T05:21:52.969Z,102.60
2018-11-05T05:24:43.403Z,131.97
2018-11-05T05:27:18.303Z,110.47
2018-11-05T05:29:50.462Z,124.37
2018-11-05T05:32:25.595Z,158.20
2018-11-05T05:34:57.270Z,146.10
2018-11-05T05:37:26.841Z,185.73
2018-11-05T05:40:03.427Z,132.50
2018-11-05T05:42:33.795Z,127.30
2018-11-05T05:45:06.952Z,130.03
2018-11-05T05:47:39.445Z,133.90
2018-11-05T05:50:15.284Z,122.77
2018-11-05T05:52:52.166Z,116.63
2018-11-05T05:55:25.548Z,201.53
2018-11-05T05:58:01.557Z,309.17
2018-11-05T06:00:34.407Z,288.70
2018-11-05T06:03:04.757Z,398.37
2018-11-05T06:05:37.658Z,289.20
2018-11-05T06:08:09.300Z,127.37
2018-11-05T06:10:38.865Z,132.60
2018-11-05T06:13:12.432Z,109.40
2018-11-05T06:15:47.691Z,136.40
2018-11-05T06:18:19.105Z,178.57
2018-11-05T06:20:49.259Z,156.23
2018-11-05T06:23:21.293Z,262.97
2018-11-05T06:25:57.363Z,250.67
2018-11-05T06:28:31.546Z,158.57
2018-11-05T06:31:07.702Z,173.27
2018-11-05T06:33:48.089Z,119.63
2018-11-05T06:36:20.542Z,125.80
2018-11-05T06:42:15.573Z,104.83
2018-11-05T06:44:46.824Z,105.77
2018-11-05T06:47:17.210Z,89.00
2018-11-05T06:49:48.733Z,115.70
2018-11-05T06:52:19.422Z,112.17
2018-11-05T06:54:54.433Z,120.63
2018-11-05T06:57:24.926Z,139.23
2018-11-05T07:00:00.268Z,165.77
2018-11-05T07:02:32.989Z,102.77
2018-11-05T07:05:04.395Z,85.90
2018-11-05T07:07:37.465Z,110.50
2018-11-05T07:10:11.399Z,129.00
2018-11-05T07:12:50.388Z,102.43
2018-11-05T07:15:21.592Z,126.13
2018-11-05T07:17:52.161Z,136.67
2018-11-05T07:20:23.527Z,110.70
2018-11-05T07:23:00.328Z,112.07
2018-11-05T07:25:31.268Z,165.37
2018-11-05T07:28:03.974Z,164.27
2018-11-05T07:30:33.731Z,104.90
2018-11-05T07:33:19.585Z,97.47
2018-11-05T07:35:52.295Z,104.33
2018-11-05T07:38:28.577Z,144.43
2018-11-05T07:40:59.708Z,108.27
2018-11-05T07:43:31.832Z,82.20
2018-11-05T07:46:02.926Z,93.80
2018-11-05T07:48:39.701Z,89.97
2018-11-05T07:51:14.333Z,94.77
2018-11-05T07:53:48.421Z,107.10
2018-11-05T07:56:21.491Z,98.60
2018-11-05T07:58:57.484Z,88.27
2018-11-05T08:01:31.730Z,95.37
2018-11-05T08:04:09.774Z,127.10
2018-11-05T08:08:50.991Z,94.50
2018-11-05T08:11:21.331Z,96.13
2018-11-05T08:14:07.036Z,96.30
2018-11-05T08:16:47.561Z,136.97
2018-11-05T08:19:29.542Z,122.10
2018-11-05T08:22:08.281Z,117.67
2018-11-05T08:24:47.006Z,129.37
2018-11-05T08:27:17.949Z,130.17
2018-11-05T08:33:26.510Z,125.97
2018-11-05T08:36:03.702Z,95.50
2018-11-05T08:38:42.026Z,96.57
2018-11-05T08:41:15.010Z,86.23
2018-11-05T08:43:45.496Z,91.97
2018-11-05T08:46:19.300Z,94.33
2018-11-05T08:48:48.794Z,91.80
2018-11-05T08:51:22.194Z,94.33
2018-11-05T08:53:53.503Z,113.40
2018-11-05T08:56:24.152Z,127.23
2018-11-05T08:58:53.648Z,102.43
2018-11-05T09:01:23.397Z,108.77
2018-11-05T09:03:57.946Z,100.13
2018-11-05T09:06:29.486Z,101.40
2018-11-05T09:09:00.109Z,107.83
2018-11-05T09:11:33.274Z,99.37
2018-11-05T09:14:05.773Z,92.00
2018-11-05T09:16:35.597Z,80.80
2018-11-05T09:19:09.651Z,84.13
2018-11-05T09:21:41.198Z,88.87
2018-11-05T09:24:21.181Z,96.40
2018-11-05T09:27:40.505Z,90.77
2018-11-05T09:30:19.899Z,88.07
2018-11-05T09:32:49.946Z,86.20
2018-11-05T09:35:21.315Z,85.70
2018-11-05T09:37:53.427Z,82.77
2018-11-05T09:40:24.207Z,85.70
2018-11-05T09:42:56.094Z,86.47
2018-11-05T09:45:27.053Z,89.27
2018-11-05T09:47:58.097Z,85.07
2018-11-05T09:50:30.194Z,76.57
2018-11-05T09:53:02.920Z,77.33
2018-11-05T09:55:38.048Z,75.57
2018-11-05T09:58:09.274Z,75.50
2018-11-05T10:00:40.784Z,75.53
2018-11-05T10:03:16.740Z,74.37
2018-11-05T10:05:50.613Z,72.20
2018-11-05T10:08:22.370Z,74.10
2018-11-05T10:10:56.146Z,69.40
2018-11-05T10:13:25.648Z,78.40
2018-11-05T10:15:55.067Z,69.47
2018-11-05T10:18:24.590Z,63.07
2018-11-05T10:20:53.888Z,67.07
2018-11-05T10:23:23.215Z,75.50
2018-11-05T10:25:52.668Z,68.77
2018-11-05T10:28:22.120Z,69.23
2018-11-05T10:30:51.407Z,62.37
2018-11-05T10:33:20.686Z,65.70
2018-11-05T10:35:58.478Z,65.73
2018-11-05T10:38:28.099Z,70.70
2018-11-05T10:40:58.860Z,65.87
2018-11-05T10:43:28.201Z,63.60
2018-11-05T10:45:58.757Z,63.97
2018-11-05T10:48:29.080Z,61.13
2018-11-05T10:50:59.186Z,65.37
2018-11-05T10:53:28.548Z,62.40
2018-11-05T10:55:57.814Z,60.27
2018-11-05T10:58:27.082Z,59.60
2018-11-05T11:01:01.776Z,58.47
2018-11-05T11:03:37.733Z,53.37
2018-11-05T11:06:08.941Z,56.63
2018-11-05T11:08:38.228Z,55.17
2018-11-05T11:11:08.584Z,58.03
2018-11-05T11:13:37.871Z,57.83
2018-11-05T11:16:07.185Z,57.73
2018-11-05T11:18:36.464Z,60.30
2018-11-05T11:21:08.890Z,56.50
2018-11-05T11:23:38.205Z,58.47
2018-11-05T11:26:07.456Z,52.50
2018-11-05T11:28:36.792Z,57.27
2018-11-05T11:31:06.237Z,58.57
2018-11-05T11:33:38.387Z,52.27
2018-11-05T11:36:08.511Z,55.93
2018-11-05T11:38:43.613Z,59.13
2018-11-05T11:44:26.564Z,54.27
2018-11-05T11:47:05.389Z,56.87
2018-11-05T11:49:53.707Z,49.13
2018-11-05T11:52:26.784Z,51.70
2018-11-05T11:59:10.301Z,50.13
2018-11-05T12:01:54.805Z,49.60
2018-11-05T12:04:42.952Z,45.90
2018-11-05T12:07:18.731Z,54.83
2018-11-05T12:09:56.372Z,51.20
2018-11-05T12:12:42.537Z,49.67
2018-11-05T12:15:23.077Z,48.03
2018-11-05T12:17:56.645Z,47.17
2018-11-05T12:20:27.815Z,46.50
2018-11-05T12:22:58.325Z,48.87
2018-11-05T12:25:28.763Z,45.37
2018-11-05T12:27:59.491Z,45.00
2018-11-05T12:30:42.889Z,43.10
2018-11-05T12:33:27.258Z,47.30
2018-11-05T12:35:58.275Z,44.67
2018-11-05T12:38:29.949Z,41.30
2018-11-05T12:41:31.148Z,49.27
2018-11-05T12:44:03.460Z,41.57
2018-11-05T12:46:48.986Z,41.63
2018-11-05T12:49:21.719Z,35.63
2018-11-05T12:51:53.285Z,41.70
2018-11-05T12:54:36.717Z,45.67
2018-11-05T12:57:24.612Z,41.70
2018-11-05T12:59:58.622Z,37.83
2018-11-05T13:03:50.914Z,44.17
2018-11-05T13:06:25.118Z,40.43
2018-11-05T13:09:01.876Z,40.10
2018-11-05T13:11:36.235Z,38.33
2018-11-05T13:14:13.835Z,36.23
2018-11-05T13:16:44.222Z,37.20
2018-11-05T13:19:17.095Z,39.20
2018-11-05T13:22:04.198Z,37.03
2018-11-05T13:24:50.148Z,39.50
2018-11-05T13:27:21.735Z,39.43
2018-11-05T13:29:52.661Z,42.70
2018-11-05T13:32:35.248Z,39.50
2018-11-05T13:35:06.000Z,39.57
2018-11-05T13:37:36.302Z,38.07
2018-11-05T13:40:06.550Z,38.03
2018-11-05T13:42:36.423Z,40.90
2018-11-05T13:45:09.439Z,37.77
2018-11-05T13:47:39.800Z,41.43
2018-11-05T13:50:13.104Z,41.27
2018-11-05T13:52:43.802Z,42.37
2018-11-05T13:55:34.893Z,37.10
2018-11-05T13:58:07.898Z,41.30
2018-11-05T14:00:51.546Z,42.40
2018-11-05T14:03:35.057Z,38.70
2018-11-05T14:06:17.022Z,38.13
2018-11-05T14:08:52.858Z,37.63
2018-11-05T14:11:47.324Z,37.60
2018-11-05T14:14:34.173Z,38.77
2018-11-05T14:17:20.402Z,33.63
2018-11-05T14:23:07.720Z,33.47
2018-11-05T14:25:49.381Z,32.63
2018-11-05T14:28:25.951Z,33.40
2018-11-05T14:31:03.135Z,28.80
2018-11-05T14:34:00.981Z,31.70
2018-11-05T14:36:40.480Z,30.47
2018-11-05T14:39:17.953Z,28.20
2018-11-05T14:45:20.751Z,30.77
2018-11-05T14:47:53.490Z,36.80
2018-11-05T14:50:48.958Z,28.17
2018-11-05T14:53:22.389Z,30.80
2018-11-05T14:56:39.176Z,31.73
2018-11-05T14:59:44.719Z,34.00
2018-11-05T15:02:24.354Z,34.00
2018-11-05T15:04:56.509Z,32.27
2018-11-05T15:07:51.234Z,31.47
2018-11-05T15:10:28.597Z,31.00
2018-11-05T15:13:23.910Z,31.23
2018-11-05T15:16:08.169Z,30.53
2018-11-05T15:18:41.330Z,29.40
2018-11-05T15:21:15.626Z,32.67
2018-11-05T15:25:17.728Z,31.17
2018-11-05T15:27:53.999Z,33.77
2018-11-05T15:30:30.521Z,36.03
2018-11-05T15:33:03.433Z,36.13
2018-11-05T15:35:33.248Z,32.37
2018-11-05T15:38:11.875Z,32.10
2018-11-05T15:42:13.143Z,32.50
2018-11-05T15:44:44.521Z,33.33
2018-11-05T15:47:19.772Z,36.00
2018-11-05T15:50:01.948Z,36.03
2018-11-05T15:52:40.170Z,40.13
2018-11-05T15:58:29.906Z,36.90
2018-11-05T16:04:21.156Z,36.67
2018-11-05T16:07:02.946Z,37.23
2018-11-05T16:09:46.457Z,36.03
2018-11-05T16:15:19.086Z,40.87
2018-11-05T16:17:53.260Z,41.47
2018-11-05T16:20:28.194Z,42.53
2018-11-05T16:23:09.300Z,42.13
2018-11-05T16:25:45.249Z,41.50
2018-11-05T16:28:21.810Z,38.17
2018-11-05T16:31:08.780Z,39.90
2018-11-05T16:47:41.745Z,40.90
2018-11-05T16:50:31.421Z,41.73
2018-11-05T17:01:56.170Z,46.10
2018-11-05T17:04:30.390Z,47.73
2018-11-05T17:09:56.470Z,41.90
2018-11-05T17:12:29.403Z,46.20
2018-11-05T17:15:08.211Z,46.30
2018-11-05T17:42:31.327Z,46.40
2018-11-05T17:45:20.104Z,54.90
2018-11-05T17:48:12.255Z,48.40
2018-11-05T17:50:47.759Z,46.07
2018-11-05T17:59:37.596Z,42.23
2018-11-05T18:08:30.476Z,46.53
2018-11-05T18:11:56.942Z,47.00
2018-11-05T18:22:43.512Z,44.83
2018-11-05T18:25:19.157Z,46.90
2018-11-05T18:31:00.377Z,49.73
2018-11-05T18:33:33.369Z,45.77
2018-11-05T18:36:03.373Z,49.33
2018-11-05T18:41:45.182Z,43.17
2018-11-05T18:44:20.912Z,45.33
2018-11-05T18:46:51.918Z,52.33
2018-11-05T18:49:22.818Z,48.40
2018-11-05T18:51:57.484Z,49.43
2018-11-05T18:54:34.594Z,54.30
2018-11-05T19:03:26.668Z,46.47
2018-11-05T19:06:10.026Z,48.47
2018-11-05T19:08:44.360Z,49.03
2018-11-05T19:11:31.190Z,61.67
2018-11-05T19:14:10.662Z,51.73
2018-11-05T19:16:57.714Z,46.33
2018-11-05T19:20:02.527Z,51.43
2018-11-05T19:25:31.215Z,50.60
2018-11-05T19:30:49.084Z,61.73
2018-11-05T19:33:34.241Z,60.93
2018-11-05T19:36:27.721Z,52.90
2018-11-05T19:39:14.362Z,57.67
2018-11-05T19:42:08.254Z,52.37
2018-11-05T19:44:50.156Z,52.10
2018-11-05T19:51:21.862Z,53.00
2018-11-05T19:53:59.046Z,53.93
2018-11-05T19:56:36.984Z,55.90
2018-11-05T20:02:40.915Z,52.33
2018-11-05T20:05:30.047Z,52.27
2018-11-05T20:11:23.147Z,47.23
2018-11-05T20:13:57.899Z,54.93
2018-11-05T20:16:31.794Z,51.03
2018-11-05T20:19:03.364Z,55.67
2018-11-05T20:21:46.802Z,53.03
2018-11-05T20:27:09.311Z,48.43
2018-11-05T20:29:43.996Z,50.00
2018-11-05T20:32:38.105Z,55.40
2018-11-05T20:35:48.135Z,52.93
2018-11-05T20:39:02.755Z,54.87
2018-11-05T20:44:05.266Z,51.73
2018-11-05T20:47:05.470Z,52.13
2018-11-05T20:50:07.045Z,50.37
2018-11-05T20:52:53.324Z,51.33
2018-11-05T20:55:55.059Z,48.40
2018-11-05T20:58:40.958Z,51.63
2018-11-05T21:01:25.750Z,54.40
2018-11-05T21:19:04.374Z,54.20
2018-11-05T21:21:54.758Z,51.30
2018-11-05T21:24:52.353Z,55.20
2018-11-05T21:27:51.742Z,53.13
2018-11-05T21:39:51.629Z,50.67
2018-11-05T21:42:49.628Z,53.73
2018-11-05T21:45:29.491Z,54.80
2018-11-05T21:48:23.153Z,51.23
2018-11-05T21:54:29.248Z,56.17
2018-11-05T21:57:09.979Z,56.33
2018-11-05T21:59:49.073Z,57.47
2018-11-05T22:03:04.855Z,52.03
2018-11-05T22:06:51.688Z,57.57
2018-11-05T22:12:31.100Z,57.13
2018-11-05T22:15:06.172Z,56.97
2018-11-05T22:17:54.961Z,58.87
2018-11-05T22:23:25.536Z,52.83
2018-11-05T22:25:59.452Z,52.63
2018-11-05T22:28:34.325Z,52.63
2018-11-05T22:31:10.104Z,51.67
2018-11-05T22:33:43.692Z,53.67
2018-11-05T22:36:28.007Z,51.50
2018-11-05T22:39:11.628Z,49.67
2018-11-05T22:41:45.350Z,50.43
2018-11-05T22:44:20.141Z,50.77
2018-11-05T22:46:59.427Z,54.40
2018-11-05T22:49:39.743Z,51.03
2018-11-05T22:52:18.356Z,50.43
2018-11-05T22:54:53.658Z,53.33
2018-11-05T22:57:27.713Z,54.67
2018-11-05T23:00:00.162Z,55.63
2018-11-05T23:02:32.481Z,50.07
2018-11-05T23:05:08.763Z,53.23
2018-11-05T23:07:48.045Z,51.80
2018-11-05T23:10:24.009Z,50.30
2018-11-05T23:12:56.300Z,52.37
2018-11-05T23:15:37.613Z,48.10
2018-11-05T23:18:15.577Z,53.73
2018-11-05T23:20:46.622Z,51.13
2018-11-05T23:23:28.788Z,72.10
2018-11-05T23:26:06.541Z,50.37
2018-11-05T23:28:43.160Z,49.70
2018-11-05T23:31:18.993Z,45.93
2018-11-05T23:33:51.222Z,52.07
2018-11-05T23:36:24.936Z,53.83
2018-11-05T23:38:55.397Z,52.20
2018-11-05T23:41:30.994Z,74.60
2018-11-05T23:44:08.181Z,50.17
2018-11-05T23:46:40.446Z,47.57
2018-11-05T23:49:12.616Z,51.57
2018-11-05T23:51:44.594Z,54.53
2018-11-05T23:54:17.093Z,52.67
2018-11-05T23:56:52.344Z,54.70
2018-11-05T23:59:25.735Z,52.47
